sensor_id;sensor_type;location;lat;lon;timestamp;temperature;humidity
15959;DHT22;8078;47.822;9.402;2023-05-23T00:00:41;15.80;99.90
15959;DHT22;8078;47.822;9.402;2023-05-23T00:03:07;15.90;99.90
15959;DHT22;8078;47.822;9.402;2023-05-23T00:05:33;15.90;99.90
15959;DHT22;8078;47.822;9.402;2023-05-23T00:08:00;15.90;99.90
15959;DHT22;8078;47.822;9.402;2023-05-23T00:10:26;16.00;99.90
15959;DHT22;8078;47.822;9.402;2023-05-23T00:12:51;16.00;99.90
15959;DHT22;8078;47.822;9.402;2023-05-23T00:15:17;15.90;99.90
15959;DHT22;8078;47.822;9.402;2023-05-23T00:17:43;16.00;99.90
15959;DHT22;8078;47.822;9.402;2023-05-23T00:20:09;16.00;99.90
15959;DHT22;8078;47.822;9.402;2023-05-23T00:22:37;16.00;99.90
15959;DHT22;8078;47.822;9.402;2023-05-23T00:25:05;16.00;99.90
15959;DHT22;8078;47.822;9.402;2023-05-23T00:27:30;15.90;99.90
15959;DHT22;8078;47.822;9.402;2023-05-23T00:29:56;15.90;99.90
15959;DHT22;8078;47.822;9.402;2023-05-23T00:32:21;15.90;99.90
15959;DHT22;8078;47.822;9.402;2023-05-23T00:34:47;15.90;99.90
15959;DHT22;8078;47.822;9.402;2023-05-23T00:37:13;15.80;99.90
15959;DHT22;8078;47.822;9.402;2023-05-23T00:39:39;15.80;99.90
15959;DHT22;8078;47.822;9.402;2023-05-23T00:42:05;15.70;99.90
15959;DHT22;8078;47.822;9.402;2023-05-23T00:44:31;15.60;99.90
15959;DHT22;8078;47.822;9.402;2023-05-23T00:46:56;15.50;99.90
15959;DHT22;8078;47.822;9.402;2023-05-23T00:49:23;15.50;99.90
15959;DHT22;8078;47.822;9.402;2023-05-23T00:51:50;15.50;99.90
15959;DHT22;8078;47.822;9.402;2023-05-23T00:54:35;15.40;99.90
15959;DHT22;8078;47.822;9.402;2023-05-23T00:57:01;15.30;99.90
15959;DHT22;8078;47.822;9.402;2023-05-23T00:59:27;15.20;99.90
15959;DHT22;8078;47.822;9.402;2023-05-23T01:01:55;15.10;99.90
15959;DHT22;8078;47.822;9.402;2023-05-23T01:04:21;15.10;99.90
15959;DHT22;8078;47.822;9.402;2023-05-23T01:06:51;15.10;99.90
15959;DHT22;8078;47.822;9.402;2023-05-23T01:09:17;15.00;99.90
15959;DHT22;8078;47.822;9.402;2023-05-23T01:14:21;14.80;99.90
15959;DHT22;8078;47.822;9.402;2023-05-23T01:16:54;14.70;99.90
15959;DHT22;8078;47.822;9.402;2023-05-23T01:19:47;14.70;99.90
15959;DHT22;8078;47.822;9.402;2023-05-23T01:28:15;15.00;99.90
15959;DHT22;8078;47.822;9.402;2023-05-23T01:30:43;15.00;99.90
15959;DHT22;8078;47.822;9.402;2023-05-23T01:33:11;15.00;99.90
15959;DHT22;8078;47.822;9.402;2023-05-23T01:35:39;14.90;99.90
15959;DHT22;8078;47.822;9.402;2023-05-23T01:38:07;14.90;99.90
15959;DHT22;8078;47.822;9.402;2023-05-23T01:40:32;14.90;99.90
15959;DHT22;8078;47.822;9.402;2023-05-23T01:43:00;14.90;99.90
15959;DHT22;8078;47.822;9.402;2023-05-23T01:45:28;14.80;99.90
15959;DHT22;8078;47.822;9.402;2023-05-23T01:47:55;14.80;99.90
15959;DHT22;8078;47.822;9.402;2023-05-23T01:50:22;14.80;99.90
15959;DHT22;8078;47.822;9.402;2023-05-23T01:52:48;14.80;99.90
15959;DHT22;8078;47.822;9.402;2023-05-23T01:55:16;14.80;99.90
15959;DHT22;8078;47.822;9.402;2023-05-23T01:57:49;14.70;99.90
15959;DHT22;8078;47.822;9.402;2023-05-23T02:00:15;14.70;99.90
15959;DHT22;8078;47.822;9.402;2023-05-23T02:02:41;14.70;99.90
15959;DHT22;8078;47.822;9.402;2023-05-23T02:05:08;14.60;99.90
15959;DHT22;8078;47.822;9.402;2023-05-23T02:07:34;14.60;99.90
15959;DHT22;8078;47.822;9.402;2023-05-23T02:10:00;14.50;99.90
15959;DHT22;8078;47.822;9.402;2023-05-23T02:12:25;14.50;99.90
15959;DHT22;8078;47.822;9.402;2023-05-23T02:14:52;14.50;99.90
15959;DHT22;8078;47.822;9.402;2023-05-23T02:17:17;14.40;99.90
15959;DHT22;8078;47.822;9.402;2023-05-23T02:19:43;14.40;99.90
15959;DHT22;8078;47.822;9.402;2023-05-23T02:22:09;14.30;99.90
15959;DHT22;8078;47.822;9.402;2023-05-23T02:24:34;14.20;99.90
15959;DHT22;8078;47.822;9.402;2023-05-23T02:27:00;14.20;99.90
15959;DHT22;8078;47.822;9.402;2023-05-23T02:29:25;14.10;99.90
15959;DHT22;8078;47.822;9.402;2023-05-23T02:31:51;14.10;99.90
15959;DHT22;8078;47.822;9.402;2023-05-23T02:34:16;14.00;99.90
15959;DHT22;8078;47.822;9.402;2023-05-23T02:36:42;14.00;99.90
15959;DHT22;8078;47.822;9.402;2023-05-23T02:39:07;14.00;99.90
15959;DHT22;8078;47.822;9.402;2023-05-23T02:41:33;13.90;99.90
15959;DHT22;8078;47.822;9.402;2023-05-23T02:43:59;13.90;99.90
15959;DHT22;8078;47.822;9.402;2023-05-23T02:46:25;13.80;99.90
15959;DHT22;8078;47.822;9.402;2023-05-23T02:48:50;13.80;99.90
15959;DHT22;8078;47.822;9.402;2023-05-23T02:51:16;13.70;99.90
15959;DHT22;8078;47.822;9.402;2023-05-23T02:53:41;13.70;99.90
15959;DHT22;8078;47.822;9.402;2023-05-23T02:56:07;13.70;99.90
15959;DHT22;8078;47.822;9.402;2023-05-23T02:58:34;13.90;99.90
15959;DHT22;8078;47.822;9.402;2023-05-23T03:01:03;13.70;99.90
15959;DHT22;8078;47.822;9.402;2023-05-23T03:03:29;13.70;99.90
15959;DHT22;8078;47.822;9.402;2023-05-23T03:05:57;13.70;99.90
15959;DHT22;8078;47.822;9.402;2023-05-23T03:08:23;13.80;99.90
15959;DHT22;8078;47.822;9.402;2023-05-23T03:10:49;13.80;99.90
15959;DHT22;8078;47.822;9.402;2023-05-23T03:13:15;13.80;99.90
15959;DHT22;8078;47.822;9.402;2023-05-23T03:15:41;13.80;99.90
15959;DHT22;8078;47.822;9.402;2023-05-23T03:18:06;13.80;99.90
15959;DHT22;8078;47.822;9.402;2023-05-23T03:20:32;13.80;99.90
15959;DHT22;8078;47.822;9.402;2023-05-23T03:22:58;13.70;99.90
15959;DHT22;8078;47.822;9.402;2023-05-23T03:25:23;13.70;99.90
15959;DHT22;8078;47.822;9.402;2023-05-23T03:27:49;13.70;99.90
15959;DHT22;8078;47.822;9.402;2023-05-23T03:30:14;13.60;99.90
15959;DHT22;8078;47.822;9.402;2023-05-23T03:32:40;13.60;99.90
15959;DHT22;8078;47.822;9.402;2023-05-23T03:35:06;13.70;99.90
15959;DHT22;8078;47.822;9.402;2023-05-23T03:37:32;13.70;99.90
15959;DHT22;8078;47.822;9.402;2023-05-23T03:39:58;13.70;99.90
15959;DHT22;8078;47.822;9.402;2023-05-23T03:42:23;13.60;99.90
15959;DHT22;8078;47.822;9.402;2023-05-23T03:44:49;13.60;99.90
15959;DHT22;8078;47.822;9.402;2023-05-23T03:47:14;13.50;99.90
15959;DHT22;8078;47.822;9.402;2023-05-23T03:49:40;13.50;99.90
15959;DHT22;8078;47.822;9.402;2023-05-23T03:52:06;13.50;99.90
15959;DHT22;8078;47.822;9.402;2023-05-23T03:54:31;13.60;99.90
15959;DHT22;8078;47.822;9.402;2023-05-23T03:56:57;13.60;99.90
15959;DHT22;8078;47.822;9.402;2023-05-23T03:59:22;13.60;99.90
15959;DHT22;8078;47.822;9.402;2023-05-23T04:01:48;13.60;99.90
15959;DHT22;8078;47.822;9.402;2023-05-23T04:04:13;13.60;99.90
15959;DHT22;8078;47.822;9.402;2023-05-23T04:06:41;13.60;99.90
15959;DHT22;8078;47.822;9.402;2023-05-23T04:09:07;13.60;99.90
15959;DHT22;8078;47.822;9.402;2023-05-23T04:11:33;13.60;99.90
15959;DHT22;8078;47.822;9.402;2023-05-23T04:13:58;13.70;99.90
15959;DHT22;8078;47.822;9.402;2023-05-23T04:16:26;13.60;99.90
15959;DHT22;8078;47.822;9.402;2023-05-23T04:18:51;13.60;99.90
15959;DHT22;8078;47.822;9.402;2023-05-23T04:21:18;13.70;99.90
15959;DHT22;8078;47.822;9.402;2023-05-23T04:23:44;13.80;99.90
15959;DHT22;8078;47.822;9.402;2023-05-23T04:26:10;13.90;99.90
15959;DHT22;8078;47.822;9.402;2023-05-23T04:28:36;14.00;99.90
15959;DHT22;8078;47.822;9.402;2023-05-23T04:31:02;14.00;99.90
15959;DHT22;8078;47.822;9.402;2023-05-23T04:33:28;14.00;99.90
15959;DHT22;8078;47.822;9.402;2023-05-23T04:35:55;14.00;99.90
15959;DHT22;8078;47.822;9.402;2023-05-23T04:38:21;13.90;99.90
15959;DHT22;8078;47.822;9.402;2023-05-23T04:40:49;13.90;99.90
15959;DHT22;8078;47.822;9.402;2023-05-23T04:43:16;13.90;99.90
15959;DHT22;8078;47.822;9.402;2023-05-23T04:45:44;14.00;99.90
15959;DHT22;8078;47.822;9.402;2023-05-23T04:48:10;14.00;99.90
15959;DHT22;8078;47.822;9.402;2023-05-23T04:50:37;14.10;99.90
15959;DHT22;8078;47.822;9.402;2023-05-23T04:53:05;14.20;99.90
15959;DHT22;8078;47.822;9.402;2023-05-23T04:55:30;14.30;99.90
15959;DHT22;8078;47.822;9.402;2023-05-23T04:57:56;14.30;99.90
15959;DHT22;8078;47.822;9.402;2023-05-23T05:00:22;14.30;99.90
15959;DHT22;8078;47.822;9.402;2023-05-23T05:02:47;14.30;99.90
15959;DHT22;8078;47.822;9.402;2023-05-23T05:05:13;14.40;99.90
15959;DHT22;8078;47.822;9.402;2023-05-23T05:07:39;14.50;99.90
15959;DHT22;8078;47.822;9.402;2023-05-23T05:10:05;14.60;99.90
15959;DHT22;8078;47.822;9.402;2023-05-23T05:12:31;14.70;99.90
15959;DHT22;8078;47.822;9.402;2023-05-23T05:14:56;14.80;99.90
15959;DHT22;8078;47.822;9.402;2023-05-23T05:17:22;14.90;99.90
15959;DHT22;8078;47.822;9.402;2023-05-23T05:19:47;14.90;99.90
15959;DHT22;8078;47.822;9.402;2023-05-23T05:22:13;14.80;99.90
15959;DHT22;8078;47.822;9.402;2023-05-23T05:24:39;14.70;99.90
15959;DHT22;8078;47.822;9.402;2023-05-23T05:27:05;14.60;99.90
15959;DHT22;8078;47.822;9.402;2023-05-23T05:29:31;14.60;99.90
15959;DHT22;8078;47.822;9.402;2023-05-23T05:31:58;14.60;99.90
15959;DHT22;8078;47.822;9.402;2023-05-23T05:34:25;14.60;99.90
15959;DHT22;8078;47.822;9.402;2023-05-23T05:36:52;14.60;99.90
15959;DHT22;8078;47.822;9.402;2023-05-23T05:39:21;14.70;99.90
15959;DHT22;8078;47.822;9.402;2023-05-23T05:41:47;14.80;99.90
15959;DHT22;8078;47.822;9.402;2023-05-23T05:44:13;14.80;99.90
15959;DHT22;8078;47.822;9.402;2023-05-23T05:46:38;14.90;99.90
15959;DHT22;8078;47.822;9.402;2023-05-23T05:49:04;15.10;99.90
15959;DHT22;8078;47.822;9.402;2023-05-23T05:51:29;15.20;99.90
15959;DHT22;8078;47.822;9.402;2023-05-23T05:53:55;15.30;99.90
15959;DHT22;8078;47.822;9.402;2023-05-23T05:56:21;15.30;99.90
15959;DHT22;8078;47.822;9.402;2023-05-23T05:58:47;15.40;99.90
15959;DHT22;8078;47.822;9.402;2023-05-23T06:01:12;15.60;99.90
15959;DHT22;8078;47.822;9.402;2023-05-23T06:03:39;15.80;99.90
15959;DHT22;8078;47.822;9.402;2023-05-23T06:06:04;15.80;99.90
15959;DHT22;8078;47.822;9.402;2023-05-23T06:08:31;15.70;99.90
15959;DHT22;8078;47.822;9.402;2023-05-23T06:10:56;15.70;99.90
15959;DHT22;8078;47.822;9.402;2023-05-23T06:13:22;15.70;99.90
15959;DHT22;8078;47.822;9.402;2023-05-23T06:15:47;15.60;99.90
15959;DHT22;8078;47.822;9.402;2023-05-23T06:18:13;15.50;99.90
15959;DHT22;8078;47.822;9.402;2023-05-23T06:20:39;15.30;99.90
15959;DHT22;8078;47.822;9.402;2023-05-23T06:23:04;15.40;99.90
15959;DHT22;8078;47.822;9.402;2023-05-23T06:25:30;15.30;99.90
15959;DHT22;8078;47.822;9.402;2023-05-23T06:27:56;15.30;99.90
15959;DHT22;8078;47.822;9.402;2023-05-23T06:30:21;15.40;99.90
15959;DHT22;8078;47.822;9.402;2023-05-23T06:32:47;15.50;99.90
15959;DHT22;8078;47.822;9.402;2023-05-23T06:35:13;15.60;99.90
15959;DHT22;8078;47.822;9.402;2023-05-23T06:37:38;15.60;99.90
15959;DHT22;8078;47.822;9.402;2023-05-23T06:40:12;15.80;99.90
15959;DHT22;8078;47.822;9.402;2023-05-23T06:42:39;15.90;99.90
15959;DHT22;8078;47.822;9.402;2023-05-23T06:45:05;16.20;99.90
15959;DHT22;8078;47.822;9.402;2023-05-23T06:47:30;16.30;99.90
15959;DHT22;8078;47.822;9.402;2023-05-23T06:49:56;16.10;99.90
15959;DHT22;8078;47.822;9.402;2023-05-23T06:52:21;16.00;99.90
15959;DHT22;8078;47.822;9.402;2023-05-23T06:54:47;16.00;99.90
15959;DHT22;8078;47.822;9.402;2023-05-23T06:57:12;16.10;99.90
15959;DHT22;8078;47.822;9.402;2023-05-23T06:59:38;16.20;99.90
15959;DHT22;8078;47.822;9.402;2023-05-23T07:02:04;16.30;99.90
15959;DHT22;8078;47.822;9.402;2023-05-23T07:04:29;16.30;99.90
15959;DHT22;8078;47.822;9.402;2023-05-23T07:06:55;16.00;99.90
15959;DHT22;8078;47.822;9.402;2023-05-23T07:09:20;15.80;99.90
15959;DHT22;8078;47.822;9.402;2023-05-23T07:11:46;15.50;99.90
15959;DHT22;8078;47.822;9.402;2023-05-23T07:14:13;15.40;99.90
15959;DHT22;8078;47.822;9.402;2023-05-23T07:16:39;15.30;99.90
15959;DHT22;8078;47.822;9.402;2023-05-23T07:19:04;15.20;99.90
15959;DHT22;8078;47.822;9.402;2023-05-23T07:21:30;15.20;99.90
15959;DHT22;8078;47.822;9.402;2023-05-23T07:23:56;15.20;99.90
15959;DHT22;8078;47.822;9.402;2023-05-23T07:26:22;15.30;99.90
15959;DHT22;8078;47.822;9.402;2023-05-23T07:28:47;15.30;99.90
15959;DHT22;8078;47.822;9.402;2023-05-23T07:31:13;15.40;99.90
15959;DHT22;8078;47.822;9.402;2023-05-23T07:33:38;15.50;99.90
15959;DHT22;8078;47.822;9.402;2023-05-23T07:36:04;15.60;99.90
15959;DHT22;8078;47.822;9.402;2023-05-23T07:38:30;15.80;99.90
15959;DHT22;8078;47.822;9.402;2023-05-23T07:40:55;16.00;99.90
15959;DHT22;8078;47.822;9.402;2023-05-23T07:43:21;16.30;99.90
15959;DHT22;8078;47.822;9.402;2023-05-23T07:45:46;16.40;99.90
15959;DHT22;8078;47.822;9.402;2023-05-23T07:48:12;16.50;99.90
15959;DHT22;8078;47.822;9.402;2023-05-23T07:50:39;16.40;99.90
15959;DHT22;8078;47.822;9.402;2023-05-23T07:53:05;16.50;99.90
15959;DHT22;8078;47.822;9.402;2023-05-23T07:55:30;16.50;99.90
15959;DHT22;8078;47.822;9.402;2023-05-23T07:57:56;16.70;99.90
15959;DHT22;8078;47.822;9.402;2023-05-23T08:00:22;16.70;99.90
15959;DHT22;8078;47.822;9.402;2023-05-23T08:02:47;16.60;99.90
15959;DHT22;8078;47.822;9.402;2023-05-23T08:05:14;16.50;99.90
15959;DHT22;8078;47.822;9.402;2023-05-23T08:07:40;16.50;99.90
15959;DHT22;8078;47.822;9.402;2023-05-23T08:10:06;16.50;99.90
15959;DHT22;8078;47.822;9.402;2023-05-23T08:12:31;16.60;99.90
15959;DHT22;8078;47.822;9.402;2023-05-23T08:14:58;16.70;99.90
15959;DHT22;8078;47.822;9.402;2023-05-23T08:17:23;16.80;99.90
15959;DHT22;8078;47.822;9.402;2023-05-23T08:19:49;17.00;99.90
15959;DHT22;8078;47.822;9.402;2023-05-23T08:22:14;17.20;99.90
15959;DHT22;8078;47.822;9.402;2023-05-23T08:24:40;17.50;99.90
15959;DHT22;8078;47.822;9.402;2023-05-23T08:27:05;17.60;99.90
15959;DHT22;8078;47.822;9.402;2023-05-23T08:29:32;17.50;99.90
15959;DHT22;8078;47.822;9.402;2023-05-23T08:31:59;17.40;99.90
15959;DHT22;8078;47.822;9.402;2023-05-23T08:34:25;17.50;99.90
15959;DHT22;8078;47.822;9.402;2023-05-23T08:36:51;17.50;99.90
15959;DHT22;8078;47.822;9.402;2023-05-23T08:39:17;17.60;99.90
15959;DHT22;8078;47.822;9.402;2023-05-23T08:41:42;17.80;99.90
15959;DHT22;8078;47.822;9.402;2023-05-23T08:44:08;17.90;99.90
15959;DHT22;8078;47.822;9.402;2023-05-23T08:46:39;18.10;99.90
15959;DHT22;8078;47.822;9.402;2023-05-23T08:49:09;18.00;99.90
15959;DHT22;8078;47.822;9.402;2023-05-23T08:51:37;18.00;99.90
15959;DHT22;8078;47.822;9.402;2023-05-23T08:54:04;18.00;99.90
15959;DHT22;8078;47.822;9.402;2023-05-23T08:56:30;18.00;99.90
15959;DHT22;8078;47.822;9.402;2023-05-23T08:58:57;18.20;99.90
15959;DHT22;8078;47.822;9.402;2023-05-23T09:01:22;18.40;99.90
15959;DHT22;8078;47.822;9.402;2023-05-23T09:03:50;18.90;99.90
15959;DHT22;8078;47.822;9.402;2023-05-23T09:06:16;19.20;99.90
15959;DHT22;8078;47.822;9.402;2023-05-23T09:08:43;19.20;99.90
15959;DHT22;8078;47.822;9.402;2023-05-23T09:11:10;19.40;99.90
15959;DHT22;8078;47.822;9.402;2023-05-23T09:13:38;19.40;99.90
15959;DHT22;8078;47.822;9.402;2023-05-23T09:16:07;19.40;99.90
15959;DHT22;8078;47.822;9.402;2023-05-23T09:18:38;19.30;99.90
15959;DHT22;8078;47.822;9.402;2023-05-23T09:21:04;19.40;99.90
15959;DHT22;8078;47.822;9.402;2023-05-23T09:23:37;19.10;99.90
15959;DHT22;8078;47.822;9.402;2023-05-23T09:26:08;19.10;99.90
15959;DHT22;8078;47.822;9.402;2023-05-23T09:28:34;18.90;99.90
15959;DHT22;8078;47.822;9.402;2023-05-23T09:31:05;18.90;99.90
15959;DHT22;8078;47.822;9.402;2023-05-23T09:33:43;18.90;99.90
15959;DHT22;8078;47.822;9.402;2023-05-23T09:36:11;18.90;99.90
15959;DHT22;8078;47.822;9.402;2023-05-23T09:38:38;18.90;99.90
15959;DHT22;8078;47.822;9.402;2023-05-23T09:41:04;18.90;99.90
15959;DHT22;8078;47.822;9.402;2023-05-23T09:43:30;18.70;99.90
15959;DHT22;8078;47.822;9.402;2023-05-23T09:46:05;18.70;99.90
15959;DHT22;8078;47.822;9.402;2023-05-23T09:48:31;18.80;99.90
15959;DHT22;8078;47.822;9.402;2023-05-23T09:50:57;18.80;99.90
15959;DHT22;8078;47.822;9.402;2023-05-23T09:53:23;18.50;99.90
15959;DHT22;8078;47.822;9.402;2023-05-23T09:55:50;18.30;99.90
15959;DHT22;8078;47.822;9.402;2023-05-23T09:58:18;17.80;99.90
15959;DHT22;8078;47.822;9.402;2023-05-23T10:00:46;18.20;99.90
15959;DHT22;8078;47.822;9.402;2023-05-23T10:03:14;18.20;99.90
15959;DHT22;8078;47.822;9.402;2023-05-23T10:05:48;18.10;99.90
15959;DHT22;8078;47.822;9.402;2023-05-23T10:08:24;18.40;99.90
15959;DHT22;8078;47.822;9.402;2023-05-23T10:13:26;18.90;99.90
15959;DHT22;8078;47.822;9.402;2023-05-23T10:16:04;19.10;99.90
15959;DHT22;8078;47.822;9.402;2023-05-23T10:18:37;18.50;99.90
15959;DHT22;8078;47.822;9.402;2023-05-23T10:21:08;17.70;99.90
15959;DHT22;8078;47.822;9.402;2023-05-23T10:23:36;17.10;99.90
15959;DHT22;8078;47.822;9.402;2023-05-23T10:26:03;16.80;99.90
15959;DHT22;8078;47.822;9.402;2023-05-23T10:28:30;16.80;99.90
15959;DHT22;8078;47.822;9.402;2023-05-23T10:30:57;16.80;99.90
15959;DHT22;8078;47.822;9.402;2023-05-23T10:33:25;17.00;99.90
15959;DHT22;8078;47.822;9.402;2023-05-23T10:36:16;17.20;99.90
15959;DHT22;8078;47.822;9.402;2023-05-23T10:39:04;17.30;99.90
15959;DHT22;8078;47.822;9.402;2023-05-23T10:41:47;17.60;99.90
15959;DHT22;8078;47.822;9.402;2023-05-23T10:44:31;17.70;99.90
15959;DHT22;8078;47.822;9.402;2023-05-23T10:46:57;17.80;99.90
15959;DHT22;8078;47.822;9.402;2023-05-23T10:49:44;18.00;99.90
15959;DHT22;8078;47.822;9.402;2023-05-23T10:52:12;18.10;99.90
15959;DHT22;8078;47.822;9.402;2023-05-23T10:55:11;18.10;99.90
15959;DHT22;8078;47.822;9.402;2023-05-23T10:57:36;18.10;99.90
15959;DHT22;8078;47.822;9.402;2023-05-23T11:00:02;17.70;99.90
15959;DHT22;8078;47.822;9.402;2023-05-23T11:02:28;17.30;99.90
15959;DHT22;8078;47.822;9.402;2023-05-23T11:05:30;16.90;99.90
15959;DHT22;8078;47.822;9.402;2023-05-23T11:08:13;16.60;99.90
15959;DHT22;8078;47.822;9.402;2023-05-23T11:13:20;16.10;99.90
15959;DHT22;8078;47.822;9.402;2023-05-23T11:15:46;16.00;99.90
15959;DHT22;8078;47.822;9.402;2023-05-23T11:18:21;16.10;99.90
15959;DHT22;8078;47.822;9.402;2023-05-23T11:20:51;16.00;99.90
15959;DHT22;8078;47.822;9.402;2023-05-23T11:23:17;15.90;99.90
15959;DHT22;8078;47.822;9.402;2023-05-23T11:25:49;15.60;99.90
15959;DHT22;8078;47.822;9.402;2023-05-23T11:28:15;15.40;99.90
15959;DHT22;8078;47.822;9.402;2023-05-23T11:30:42;15.50;99.90
15959;DHT22;8078;47.822;9.402;2023-05-23T11:33:09;15.60;99.90
15959;DHT22;8078;47.822;9.402;2023-05-23T11:35:42;15.70;99.90
15959;DHT22;8078;47.822;9.402;2023-05-23T11:38:08;15.80;99.90
15959;DHT22;8078;47.822;9.402;2023-05-23T11:40:36;16.10;99.90
15959;DHT22;8078;47.822;9.402;2023-05-23T11:43:04;16.40;99.90
15959;DHT22;8078;47.822;9.402;2023-05-23T11:45:30;16.70;99.90
15959;DHT22;8078;47.822;9.402;2023-05-23T11:47:56;16.90;99.90
15959;DHT22;8078;47.822;9.402;2023-05-23T11:50:22;17.10;99.90
15959;DHT22;8078;47.822;9.402;2023-05-23T11:52:49;17.30;99.90
15959;DHT22;8078;47.822;9.402;2023-05-23T11:55:19;17.40;99.90
15959;DHT22;8078;47.822;9.402;2023-05-23T11:57:45;17.60;99.90
15959;DHT22;8078;47.822;9.402;2023-05-23T12:00:12;17.70;99.90
15959;DHT22;8078;47.822;9.402;2023-05-23T12:02:42;18.00;99.90
15959;DHT22;8078;47.822;9.402;2023-05-23T12:05:12;18.80;99.90
15959;DHT22;8078;47.822;9.402;2023-05-23T12:07:43;19.30;99.90
15959;DHT22;8078;47.822;9.402;2023-05-23T12:10:10;19.60;99.90
15959;DHT22;8078;47.822;9.402;2023-05-23T12:12:36;20.00;99.90
15959;DHT22;8078;47.822;9.402;2023-05-23T12:15:03;20.10;99.90
15959;DHT22;8078;47.822;9.402;2023-05-23T12:17:29;20.10;99.90
15959;DHT22;8078;47.822;9.402;2023-05-23T12:19:57;20.00;99.90
15959;DHT22;8078;47.822;9.402;2023-05-23T12:22:23;20.30;99.90
15959;DHT22;8078;47.822;9.402;2023-05-23T12:24:54;20.20;99.90
15959;DHT22;8078;47.822;9.402;2023-05-23T12:27:26;20.30;99.90
15959;DHT22;8078;47.822;9.402;2023-05-23T12:30:05;20.30;99.90
15959;DHT22;8078;47.822;9.402;2023-05-23T12:32:41;20.30;99.90
15959;DHT22;8078;47.822;9.402;2023-05-23T12:35:11;20.30;99.90
15959;DHT22;8078;47.822;9.402;2023-05-23T12:37:44;20.30;99.90
15959;DHT22;8078;47.822;9.402;2023-05-23T12:40:17;20.60;99.90
15959;DHT22;8078;47.822;9.402;2023-05-23T12:42:53;21.00;99.90
15959;DHT22;8078;47.822;9.402;2023-05-23T12:45:25;21.10;99.90
15959;DHT22;8078;47.822;9.402;2023-05-23T12:47:55;20.80;99.90
15959;DHT22;8078;47.822;9.402;2023-05-23T12:50:21;20.00;99.90
15959;DHT22;8078;47.822;9.402;2023-05-23T12:52:46;19.40;99.90
15959;DHT22;8078;47.822;9.402;2023-05-23T12:55:12;19.20;99.90
15959;DHT22;8078;47.822;9.402;2023-05-23T12:57:38;19.10;99.90
15959;DHT22;8078;47.822;9.402;2023-05-23T13:00:04;19.40;99.90
15959;DHT22;8078;47.822;9.402;2023-05-23T13:02:30;19.40;99.90
15959;DHT22;8078;47.822;9.402;2023-05-23T13:04:56;19.00;99.90
15959;DHT22;8078;47.822;9.402;2023-05-23T13:07:22;18.90;99.90
15959;DHT22;8078;47.822;9.402;2023-05-23T13:09:48;19.40;99.90
15959;DHT22;8078;47.822;9.402;2023-05-23T13:12:13;19.50;99.90
15959;DHT22;8078;47.822;9.402;2023-05-23T13:14:40;19.40;99.90
15959;DHT22;8078;47.822;9.402;2023-05-23T13:17:05;19.20;99.90
15959;DHT22;8078;47.822;9.402;2023-05-23T13:19:31;19.50;99.90
15959;DHT22;8078;47.822;9.402;2023-05-23T13:21:57;19.60;99.90
15959;DHT22;8078;47.822;9.402;2023-05-23T13:24:22;19.10;99.90
15959;DHT22;8078;47.822;9.402;2023-05-23T13:26:48;18.60;99.90
15959;DHT22;8078;47.822;9.402;2023-05-23T13:29:14;18.30;99.90
15959;DHT22;8078;47.822;9.402;2023-05-23T13:31:39;17.90;99.90
15959;DHT22;8078;47.822;9.402;2023-05-23T13:34:05;17.60;99.90
15959;DHT22;8078;47.822;9.402;2023-05-23T13:36:31;17.20;99.90
15959;DHT22;8078;47.822;9.402;2023-05-23T13:38:58;17.00;99.90
15959;DHT22;8078;47.822;9.402;2023-05-23T13:41:24;16.90;99.90
15959;DHT22;8078;47.822;9.402;2023-05-23T13:43:50;16.80;99.90
15959;DHT22;8078;47.822;9.402;2023-05-23T13:46:15;16.60;99.90
15959;DHT22;8078;47.822;9.402;2023-05-23T13:48:41;16.50;99.90
15959;DHT22;8078;47.822;9.402;2023-05-23T13:51:06;16.40;99.90
15959;DHT22;8078;47.822;9.402;2023-05-23T13:53:32;16.40;99.90
15959;DHT22;8078;47.822;9.402;2023-05-23T13:55:57;16.40;99.90
15959;DHT22;8078;47.822;9.402;2023-05-23T13:58:23;16.40;99.90
15959;DHT22;8078;47.822;9.402;2023-05-23T14:00:49;16.40;99.90
15959;DHT22;8078;47.822;9.402;2023-05-23T14:03:14;16.50;99.90
15959;DHT22;8078;47.822;9.402;2023-05-23T14:05:40;16.40;99.90
15959;DHT22;8078;47.822;9.402;2023-05-23T14:08:05;16.50;99.90
15959;DHT22;8078;47.822;9.402;2023-05-23T14:10:31;16.40;99.90
15959;DHT22;8078;47.822;9.402;2023-05-23T14:12:59;16.50;99.90
15959;DHT22;8078;47.822;9.402;2023-05-23T14:15:25;16.40;99.90
15959;DHT22;8078;47.822;9.402;2023-05-23T14:17:52;16.30;99.90
15959;DHT22;8078;47.822;9.402;2023-05-23T14:20:20;16.30;99.90
15959;DHT22;8078;47.822;9.402;2023-05-23T14:22:46;16.20;99.90
15959;DHT22;8078;47.822;9.402;2023-05-23T14:25:12;16.20;99.90
15959;DHT22;8078;47.822;9.402;2023-05-23T14:27:37;16.20;99.90
15959;DHT22;8078;47.822;9.402;2023-05-23T14:30:04;16.40;99.90
15959;DHT22;8078;47.822;9.402;2023-05-23T14:32:31;16.40;99.90
15959;DHT22;8078;47.822;9.402;2023-05-23T14:35:03;16.40;99.90
15959;DHT22;8078;47.822;9.402;2023-05-23T14:37:28;16.60;99.90
15959;DHT22;8078;47.822;9.402;2023-05-23T14:39:54;16.70;99.90
15959;DHT22;8078;47.822;9.402;2023-05-23T14:42:20;16.70;99.90
15959;DHT22;8078;47.822;9.402;2023-05-23T14:44:45;16.80;99.90
15959;DHT22;8078;47.822;9.402;2023-05-23T14:47:11;16.90;99.90
15959;DHT22;8078;47.822;9.402;2023-05-23T14:49:36;17.10;99.90
15959;DHT22;8078;47.822;9.402;2023-05-23T14:52:02;17.40;99.90
15959;DHT22;8078;47.822;9.402;2023-05-23T14:54:27;17.70;99.90
15959;DHT22;8078;47.822;9.402;2023-05-23T14:56:53;18.00;99.90
15959;DHT22;8078;47.822;9.402;2023-05-23T14:59:18;18.10;99.90
15959;DHT22;8078;47.822;9.402;2023-05-23T15:01:44;18.60;99.90
15959;DHT22;8078;47.822;9.402;2023-05-23T15:04:09;18.70;99.90
15959;DHT22;8078;47.822;9.402;2023-05-23T15:06:35;18.80;99.90
15959;DHT22;8078;47.822;9.402;2023-05-23T15:09:02;18.50;99.90
15959;DHT22;8078;47.822;9.402;2023-05-23T15:11:27;19.00;99.90
15959;DHT22;8078;47.822;9.402;2023-05-23T15:13:53;19.20;99.90
15959;DHT22;8078;47.822;9.402;2023-05-23T15:16:18;20.10;99.90
15959;DHT22;8078;47.822;9.402;2023-05-23T15:18:44;20.80;99.90
15959;DHT22;8078;47.822;9.402;2023-05-23T15:21:10;21.00;99.90
15959;DHT22;8078;47.822;9.402;2023-05-23T15:23:36;20.50;99.90
15959;DHT22;8078;47.822;9.402;2023-05-23T15:26:02;20.60;99.90
15959;DHT22;8078;47.822;9.402;2023-05-23T15:28:27;21.20;99.90
15959;DHT22;8078;47.822;9.402;2023-05-23T15:30:53;21.30;99.90
15959;DHT22;8078;47.822;9.402;2023-05-23T15:33:18;21.70;99.90
15959;DHT22;8078;47.822;9.402;2023-05-23T15:35:44;20.00;99.90
15959;DHT22;8078;47.822;9.402;2023-05-23T15:38:09;19.50;99.90
15959;DHT22;8078;47.822;9.402;2023-05-23T15:40:35;19.10;99.90
15959;DHT22;8078;47.822;9.402;2023-05-23T15:43:00;18.90;99.90
15959;DHT22;8078;47.822;9.402;2023-05-23T15:45:26;19.10;99.90
15959;DHT22;8078;47.822;9.402;2023-05-23T15:47:51;19.70;99.90
15959;DHT22;8078;47.822;9.402;2023-05-23T15:50:17;20.40;99.90
15959;DHT22;8078;47.822;9.402;2023-05-23T15:52:44;20.50;99.90
15959;DHT22;8078;47.822;9.402;2023-05-23T15:55:09;20.00;99.90
15959;DHT22;8078;47.822;9.402;2023-05-23T15:57:35;19.10;99.90